sensor_id;sensor_type;location;lat;lon;timestamp;pressure;altitude;pressure_sealevel;temperature
7389;BMP180;3735;50.136;11.062;2023-03-01T00:01:12;99294.00;;;-4.30
7389;BMP180;3735;50.136;11.062;2023-03-01T00:03:38;99291.00;;;-4.30
7389;BMP180;3735;50.136;11.062;2023-03-01T00:06:05;99286.00;;;-4.30
7389;BMP180;3735;50.136;11.062;2023-03-01T00:08:33;99289.00;;;-4.40
7389;BMP180;3735;50.136;11.062;2023-03-01T00:11:20;99281.00;;;-4.40
7389;BMP180;3735;50.136;11.062;2023-03-01T00:13:50;99282.00;;;-4.40
7389;BMP180;3735;50.136;11.062;2023-03-01T00:16:24;99280.00;;;-4.30
7389;BMP180;3735;50.136;11.062;2023-03-01T00:18:50;99287.00;;;-4.30
7389;BMP180;3735;50.136;11.062;2023-03-01T00:21:17;99292.00;;;-4.30
7389;BMP180;3735;50.136;11.062;2023-03-01T00:23:43;99283.00;;;-4.40
7389;BMP180;3735;50.136;11.062;2023-03-01T00:26:12;99267.00;;;-4.40
7389;BMP180;3735;50.136;11.062;2023-03-01T00:28:38;99281.00;;;-4.50
7389;BMP180;3735;50.136;11.062;2023-03-01T00:31:10;99281.00;;;-4.50
7389;BMP180;3735;50.136;11.062;2023-03-01T00:33:37;99270.00;;;-4.40
7389;BMP180;3735;50.136;11.062;2023-03-01T00:36:03;99265.00;;;-4.50
7389;BMP180;3735;50.136;11.062;2023-03-01T00:38:30;99262.00;;;-4.50
7389;BMP180;3735;50.136;11.062;2023-03-01T00:41:07;99258.00;;;-4.40
7389;BMP180;3735;50.136;11.062;2023-03-01T00:43:33;99258.00;;;-4.50
7389;BMP180;3735;50.136;11.062;2023-03-01T00:46:14;99259.00;;;-4.50
7389;BMP180;3735;50.136;11.062;2023-03-01T00:48:40;99261.00;;;-4.50
7389;BMP180;3735;50.136;11.062;2023-03-01T00:51:20;99264.00;;;-4.50
7389;BMP180;3735;50.136;11.062;2023-03-01T00:53:49;99257.00;;;-4.50
7389;BMP180;3735;50.136;11.062;2023-03-01T00:56:15;99246.00;;;-4.50
7389;BMP180;3735;50.136;11.062;2023-03-01T00:58:42;99265.00;;;-4.60
7389;BMP180;3735;50.136;11.062;2023-03-01T01:01:21;99263.00;;;-4.60
7389;BMP180;3735;50.136;11.062;2023-03-01T01:03:54;99259.00;;;-4.60
7389;BMP180;3735;50.136;11.062;2023-03-01T01:06:25;99262.00;;;-4.70
7389;BMP180;3735;50.136;11.062;2023-03-01T01:08:52;99254.00;;;-4.70
7389;BMP180;3735;50.136;11.062;2023-03-01T01:11:19;99237.00;;;-4.70
7389;BMP180;3735;50.136;11.062;2023-03-01T01:13:47;99246.00;;;-4.70
7389;BMP180;3735;50.136;11.062;2023-03-01T01:16:14;99248.00;;;-4.60
7389;BMP180;3735;50.136;11.062;2023-03-01T01:18:40;99246.00;;;-4.60
7389;BMP180;3735;50.136;11.062;2023-03-01T01:21:12;99235.00;;;-4.70
7389;BMP180;3735;50.136;11.062;2023-03-01T01:23:40;99240.00;;;-4.70
7389;BMP180;3735;50.136;11.062;2023-03-01T01:26:28;99236.00;;;-4.70
7389;BMP180;3735;50.136;11.062;2023-03-01T01:28:54;99230.00;;;-4.80
7389;BMP180;3735;50.136;11.062;2023-03-01T01:31:22;99215.00;;;-4.80
7389;BMP180;3735;50.136;11.062;2023-03-01T01:33:52;99191.00;;;-4.80
7389;BMP180;3735;50.136;11.062;2023-03-01T01:36:18;99222.00;;;-4.80
7389;BMP180;3735;50.136;11.062;2023-03-01T01:38:45;99228.00;;;-4.80
7389;BMP180;3735;50.136;11.062;2023-03-01T01:41:13;99220.00;;;-4.80
7389;BMP180;3735;50.136;11.062;2023-03-01T01:43:43;99225.00;;;-4.70
7389;BMP180;3735;50.136;11.062;2023-03-01T01:49:02;99220.00;;;-4.60
7389;BMP180;3735;50.136;11.062;2023-03-01T01:51:40;99207.00;;;-4.50
7389;BMP180;3735;50.136;11.062;2023-03-01T01:54:19;99212.00;;;-4.60
7389;BMP180;3735;50.136;11.062;2023-03-01T01:57:09;99209.00;;;-4.60
7389;BMP180;3735;50.136;11.062;2023-03-01T01:59:37;99211.00;;;-4.50
7389;BMP180;3735;50.136;11.062;2023-03-01T02:02:05;99215.00;;;-4.50
7389;BMP180;3735;50.136;11.062;2023-03-01T02:04:32;99209.00;;;-4.50
7389;BMP180;3735;50.136;11.062;2023-03-01T02:09:36;99196.00;;;-4.40
7389;BMP180;3735;50.136;11.062;2023-03-01T02:12:03;99192.00;;;-4.30
7389;BMP180;3735;50.136;11.062;2023-03-01T02:14:30;99192.00;;;-4.30
7389;BMP180;3735;50.136;11.062;2023-03-01T02:16:55;99185.00;;;-4.30
7389;BMP180;3735;50.136;11.062;2023-03-01T02:22:38;99160.00;;;-4.50
7389;BMP180;3735;50.136;11.062;2023-03-01T02:25:21;99184.00;;;-4.50
7389;BMP180;3735;50.136;11.062;2023-03-01T02:30:32;99183.00;;;-4.50
7389;BMP180;3735;50.136;11.062;2023-03-01T02:33:03;99180.00;;;-4.50
7389;BMP180;3735;50.136;11.062;2023-03-01T02:35:38;99164.00;;;-4.50
7389;BMP180;3735;50.136;11.062;2023-03-01T02:38:08;99168.00;;;-4.50
7389;BMP180;3735;50.136;11.062;2023-03-01T02:40:36;99161.00;;;-4.40
7389;BMP180;3735;50.136;11.062;2023-03-01T02:43:06;99155.00;;;-4.50
7389;BMP180;3735;50.136;11.062;2023-03-01T02:45:33;99164.00;;;-4.50
7389;BMP180;3735;50.136;11.062;2023-03-01T02:47:59;99152.00;;;-4.50
7389;BMP180;3735;50.136;11.062;2023-03-01T02:53:15;99163.00;;;-4.70
7389;BMP180;3735;50.136;11.062;2023-03-01T02:55:42;99164.00;;;-4.70
7389;BMP180;3735;50.136;11.062;2023-03-01T02:58:08;99155.00;;;-4.80
7389;BMP180;3735;50.136;11.062;2023-03-01T03:00:42;99163.00;;;-4.80
7389;BMP180;3735;50.136;11.062;2023-03-01T03:03:15;99149.00;;;-4.90
7389;BMP180;3735;50.136;11.062;2023-03-01T03:05:42;99142.00;;;-4.90
7389;BMP180;3735;50.136;11.062;2023-03-01T03:08:08;99143.00;;;-4.90
7389;BMP180;3735;50.136;11.062;2023-03-01T03:10:41;99137.00;;;-4.80
7389;BMP180;3735;50.136;11.062;2023-03-01T03:13:14;99143.00;;;-4.80
7389;BMP180;3735;50.136;11.062;2023-03-01T03:15:42;99142.00;;;-4.80
7389;BMP180;3735;50.136;11.062;2023-03-01T03:18:12;99142.00;;;-4.70
7389;BMP180;3735;50.136;11.062;2023-03-01T03:20:41;99137.00;;;-4.70
7389;BMP180;3735;50.136;11.062;2023-03-01T03:23:08;99127.00;;;-4.70
7389;BMP180;3735;50.136;11.062;2023-03-01T03:25:33;99126.00;;;-4.80
7389;BMP180;3735;50.136;11.062;2023-03-01T03:28:07;99119.00;;;-4.80
7389;BMP180;3735;50.136;11.062;2023-03-01T03:30:38;99133.00;;;-4.80
7389;BMP180;3735;50.136;11.062;2023-03-01T03:33:05;99144.00;;;-4.80
7389;BMP180;3735;50.136;11.062;2023-03-01T03:35:43;99143.00;;;-4.70
7389;BMP180;3735;50.136;11.062;2023-03-01T03:38:12;99140.00;;;-4.70
7389;BMP180;3735;50.136;11.062;2023-03-01T03:40:48;99136.00;;;-4.60
7389;BMP180;3735;50.136;11.062;2023-03-01T03:43:21;99130.00;;;-4.50
7389;BMP180;3735;50.136;11.062;2023-03-01T03:45:50;99098.00;;;-4.50
7389;BMP180;3735;50.136;11.062;2023-03-01T03:48:18;99127.00;;;-4.50
7389;BMP180;3735;50.136;11.062;2023-03-01T03:50:51;99136.00;;;-4.50
7389;BMP180;3735;50.136;11.062;2023-03-01T03:53:18;99129.00;;;-4.40
7389;BMP180;3735;50.136;11.062;2023-03-01T03:55:44;99132.00;;;-4.50
7389;BMP180;3735;50.136;11.062;2023-03-01T03:58:11;99132.00;;;-4.60
7389;BMP180;3735;50.136;11.062;2023-03-01T04:00:44;99134.00;;;-4.60
7389;BMP180;3735;50.136;11.062;2023-03-01T04:03:12;99126.00;;;-4.50
7389;BMP180;3735;50.136;11.062;2023-03-01T04:05:41;99135.00;;;-4.50
7389;BMP180;3735;50.136;11.062;2023-03-01T04:08:08;99132.00;;;-4.40
7389;BMP180;3735;50.136;11.062;2023-03-01T04:10:42;99133.00;;;-4.30
7389;BMP180;3735;50.136;11.062;2023-03-01T04:13:12;99130.00;;;-4.30
7389;BMP180;3735;50.136;11.062;2023-03-01T04:15:40;99133.00;;;-4.20
7389;BMP180;3735;50.136;11.062;2023-03-01T04:18:08;99134.00;;;-4.20
7389;BMP180;3735;50.136;11.062;2023-03-01T04:20:35;99117.00;;;-4.10
7389;BMP180;3735;50.136;11.062;2023-03-01T04:23:18;99135.00;;;-4.00
7389;BMP180;3735;50.136;11.062;2023-03-01T04:25:54;99137.00;;;-3.80
7389;BMP180;3735;50.136;11.062;2023-03-01T04:28:47;99126.00;;;-3.70
7389;BMP180;3735;50.136;11.062;2023-03-01T04:31:17;99131.00;;;-3.70
7389;BMP180;3735;50.136;11.062;2023-03-01T04:33:50;99122.00;;;-3.60
7389;BMP180;3735;50.136;11.062;2023-03-01T04:36:23;99132.00;;;-3.70
7389;BMP180;3735;50.136;11.062;2023-03-01T04:38:48;99121.00;;;-3.70
7389;BMP180;3735;50.136;11.062;2023-03-01T04:41:19;99115.00;;;-3.80
7389;BMP180;3735;50.136;11.062;2023-03-01T04:43:46;99083.00;;;-3.70
7389;BMP180;3735;50.136;11.062;2023-03-01T04:46:15;99108.00;;;-3.70
7389;BMP180;3735;50.136;11.062;2023-03-01T04:48:44;99107.00;;;-3.60
7389;BMP180;3735;50.136;11.062;2023-03-01T04:51:11;99107.00;;;-3.60
7389;BMP180;3735;50.136;11.062;2023-03-01T04:53:41;99098.00;;;-3.50
7389;BMP180;3735;50.136;11.062;2023-03-01T04:56:07;99042.00;;;-3.40
7389;BMP180;3735;50.136;11.062;2023-03-01T04:58:33;99097.00;;;-3.40
7389;BMP180;3735;50.136;11.062;2023-03-01T05:00:59;99095.00;;;-3.50
7389;BMP180;3735;50.136;11.062;2023-03-01T05:03:25;99094.00;;;-3.30
7389;BMP180;3735;50.136;11.062;2023-03-01T05:05:52;99082.00;;;-3.30
7389;BMP180;3735;50.136;11.062;2023-03-01T05:08:18;99090.00;;;-3.20
7389;BMP180;3735;50.136;11.062;2023-03-01T05:10:51;99088.00;;;-3.20
7389;BMP180;3735;50.136;11.062;2023-03-01T05:13:19;99090.00;;;-3.20
7389;BMP180;3735;50.136;11.062;2023-03-01T05:15:57;99088.00;;;-3.20
7389;BMP180;3735;50.136;11.062;2023-03-01T05:18:24;99083.00;;;-3.20
7389;BMP180;3735;50.136;11.062;2023-03-01T05:20:53;99083.00;;;-3.10
7389;BMP180;3735;50.136;11.062;2023-03-01T05:23:22;99076.00;;;-3.10
7389;BMP180;3735;50.136;11.062;2023-03-01T05:25:48;99079.00;;;-3.10
7389;BMP180;3735;50.136;11.062;2023-03-01T05:28:19;99079.00;;;-3.10
7389;BMP180;3735;50.136;11.062;2023-03-01T05:30:46;99072.00;;;-3.10
7389;BMP180;3735;50.136;11.062;2023-03-01T05:33:12;99067.00;;;-3.10
7389;BMP180;3735;50.136;11.062;2023-03-01T05:35:43;99059.00;;;-3.00
7389;BMP180;3735;50.136;11.062;2023-03-01T05:38:13;99060.00;;;-3.00
7389;BMP180;3735;50.136;11.062;2023-03-01T05:40:41;99056.00;;;-3.00
7389;BMP180;3735;50.136;11.062;2023-03-01T05:43:07;99064.00;;;-3.00
7389;BMP180;3735;50.136;11.062;2023-03-01T05:45:36;99056.00;;;-3.00
7389;BMP180;3735;50.136;11.062;2023-03-01T05:48:03;99042.00;;;-3.00
7389;BMP180;3735;50.136;11.062;2023-03-01T05:50:35;99050.00;;;-3.00
7389;BMP180;3735;50.136;11.062;2023-03-01T05:53:09;99059.00;;;-3.00
7389;BMP180;3735;50.136;11.062;2023-03-01T05:55:36;99060.00;;;-3.00
7389;BMP180;3735;50.136;11.062;2023-03-01T05:58:06;99063.00;;;-3.00
7389;BMP180;3735;50.136;11.062;2023-03-01T06:00:33;99062.00;;;-3.00
7389;BMP180;3735;50.136;11.062;2023-03-01T06:03:01;99051.00;;;-3.00
7389;BMP180;3735;50.136;11.062;2023-03-01T06:05:28;99054.00;;;-3.00
7389;BMP180;3735;50.136;11.062;2023-03-01T06:07:54;99065.00;;;-3.10
7389;BMP180;3735;50.136;11.062;2023-03-01T06:10:21;99066.00;;;-3.10
7389;BMP180;3735;50.136;11.062;2023-03-01T06:12:48;99060.00;;;-3.10
7389;BMP180;3735;50.136;11.062;2023-03-01T06:15:16;99069.00;;;-3.10
7389;BMP180;3735;50.136;11.062;2023-03-01T06:17:45;99063.00;;;-3.00
7389;BMP180;3735;50.136;11.062;2023-03-01T06:20:29;99070.00;;;-3.00
7389;BMP180;3735;50.136;11.062;2023-03-01T06:22:56;99051.00;;;-2.90
7389;BMP180;3735;50.136;11.062;2023-03-01T06:25:26;99063.00;;;-2.90
7389;BMP180;3735;50.136;11.062;2023-03-01T06:27:52;99063.00;;;-2.90
7389;BMP180;3735;50.136;11.062;2023-03-01T06:30:21;99058.00;;;-2.90
7389;BMP180;3735;50.136;11.062;2023-03-01T06:32:47;99055.00;;;-2.90
7389;BMP180;3735;50.136;11.062;2023-03-01T06:35:16;99053.00;;;-2.90
7389;BMP180;3735;50.136;11.062;2023-03-01T06:37:47;99064.00;;;-2.90
7389;BMP180;3735;50.136;11.062;2023-03-01T06:40:14;99071.00;;;-2.80
7389;BMP180;3735;50.136;11.062;2023-03-01T06:42:47;99069.00;;;-2.80
7389;BMP180;3735;50.136;11.062;2023-03-01T06:45:17;99065.00;;;-2.80
7389;BMP180;3735;50.136;11.062;2023-03-01T06:47:44;99063.00;;;-2.70
7389;BMP180;3735;50.136;11.062;2023-03-01T06:50:10;99056.00;;;-2.70
7389;BMP180;3735;50.136;11.062;2023-03-01T06:52:36;99048.00;;;-2.50
7389;BMP180;3735;50.136;11.062;2023-03-01T06:55:03;99055.00;;;-2.40
7389;BMP180;3735;50.136;11.062;2023-03-01T06:57:29;99044.00;;;-2.40
7389;BMP180;3735;50.136;11.062;2023-03-01T06:59:55;99053.00;;;-2.30
7389;BMP180;3735;50.136;11.062;2023-03-01T07:02:21;99052.00;;;-2.30
7389;BMP180;3735;50.136;11.062;2023-03-01T07:04:52;99035.00;;;-2.20
7389;BMP180;3735;50.136;11.062;2023-03-01T07:07:18;99043.00;;;-2.10
7389;BMP180;3735;50.136;11.062;2023-03-01T07:09:45;99050.00;;;-2.00
7389;BMP180;3735;50.136;11.062;2023-03-01T07:12:11;99041.00;;;-1.80
7389;BMP180;3735;50.136;11.062;2023-03-01T07:14:37;99039.00;;;-1.60
7389;BMP180;3735;50.136;11.062;2023-03-01T07:17:03;99034.00;;;-1.50
7389;BMP180;3735;50.136;11.062;2023-03-01T07:19:29;99037.00;;;-1.30
7389;BMP180;3735;50.136;11.062;2023-03-01T07:21:54;99033.00;;;-1.20
7389;BMP180;3735;50.136;11.062;2023-03-01T07:24:21;99026.00;;;-1.00
7389;BMP180;3735;50.136;11.062;2023-03-01T07:26:51;99021.00;;;-0.80
7389;BMP180;3735;50.136;11.062;2023-03-01T07:29:18;99013.00;;;-0.60
7389;BMP180;3735;50.136;11.062;2023-03-01T07:31:44;98971.00;;;-0.50
7389;BMP180;3735;50.136;11.062;2023-03-01T07:34:10;99001.00;;;-0.20
7389;BMP180;3735;50.136;11.062;2023-03-01T07:36:37;98986.00;;;0.00
7389;BMP180;3735;50.136;11.062;2023-03-01T07:39:03;99012.00;;;0.30
7389;BMP180;3735;50.136;11.062;2023-03-01T07:41:29;98999.00;;;0.60
7389;BMP180;3735;50.136;11.062;2023-03-01T07:43:55;98999.00;;;1.00
7389;BMP180;3735;50.136;11.062;2023-03-01T07:46:21;98994.00;;;1.40
7389;BMP180;3735;50.136;11.062;2023-03-01T07:48:47;99001.00;;;1.60
7389;BMP180;3735;50.136;11.062;2023-03-01T07:51:13;98993.00;;;2.00
7389;BMP180;3735;50.136;11.062;2023-03-01T07:53:39;98978.00;;;2.80
7389;BMP180;3735;50.136;11.062;2023-03-01T07:56:09;98978.00;;;4.10
7389;BMP180;3735;50.136;11.062;2023-03-01T07:58:41;98961.00;;;5.10
7389;BMP180;3735;50.136;11.062;2023-03-01T08:01:11;98961.00;;;6.10
7389;BMP180;3735;50.136;11.062;2023-03-01T08:03:37;98957.00;;;7.00
7389;BMP180;3735;50.136;11.062;2023-03-01T08:06:06;98941.00;;;7.90
7389;BMP180;3735;50.136;11.062;2023-03-01T08:08:33;98943.00;;;8.10
7389;BMP180;3735;50.136;11.062;2023-03-01T08:11:02;98939.00;;;8.80
7389;BMP180;3735;50.136;11.062;2023-03-01T08:13:28;98912.00;;;9.50
7389;BMP180;3735;50.136;11.062;2023-03-01T08:15:54;98925.00;;;9.30
7389;BMP180;3735;50.136;11.062;2023-03-01T08:18:25;98919.00;;;9.60
7389;BMP180;3735;50.136;11.062;2023-03-01T08:20:51;98932.00;;;8.90
7389;BMP180;3735;50.136;11.062;2023-03-01T08:23:16;98922.00;;;10.00
7389;BMP180;3735;50.136;11.062;2023-03-01T08:25:42;98919.00;;;10.10
7389;BMP180;3735;50.136;11.062;2023-03-01T08:28:08;98931.00;;;10.10
7389;BMP180;3735;50.136;11.062;2023-03-01T08:30:34;98923.00;;;10.30
7389;BMP180;3735;50.136;11.062;2023-03-01T08:32:59;98918.00;;;10.50
7389;BMP180;3735;50.136;11.062;2023-03-01T08:35:25;98912.00;;;10.60
7389;BMP180;3735;50.136;11.062;2023-03-01T08:37:51;98922.00;;;10.40
7389;BMP180;3735;50.136;11.062;2023-03-01T08:40:17;98924.00;;;9.80
7389;BMP180;3735;50.136;11.062;2023-03-01T08:42:43;98920.00;;;10.70
7389;BMP180;3735;50.136;11.062;2023-03-01T08:45:10;98922.00;;;10.80
7389;BMP180;3735;50.136;11.062;2023-03-01T08:47:36;98924.00;;;11.00
7389;BMP180;3735;50.136;11.062;2023-03-01T08:50:02;98907.00;;;10.60
7389;BMP180;3735;50.136;11.062;2023-03-01T08:52:28;98908.00;;;10.20
7389;BMP180;3735;50.136;11.062;2023-03-01T08:54:56;98908.00;;;10.20
7389;BMP180;3735;50.136;11.062;2023-03-01T08:57:22;98908.00;;;10.10
7389;BMP180;3735;50.136;11.062;2023-03-01T08:59:47;98902.00;;;10.00
7389;BMP180;3735;50.136;11.062;2023-03-01T09:02:17;98903.00;;;10.30
7389;BMP180;3735;50.136;11.062;2023-03-01T09:04:43;98903.00;;;10.40
7389;BMP180;3735;50.136;11.062;2023-03-01T09:07:10;98887.00;;;10.10
7389;BMP180;3735;50.136;11.062;2023-03-01T09:09:37;98887.00;;;10.20
7389;BMP180;3735;50.136;11.062;2023-03-01T09:12:03;98889.00;;;10.20
7389;BMP180;3735;50.136;11.062;2023-03-01T09:14:29;98893.00;;;10.30
7389;BMP180;3735;50.136;11.062;2023-03-01T09:16:56;98891.00;;;10.80
7389;BMP180;3735;50.136;11.062;2023-03-01T09:19:22;98894.00;;;9.90
7389;BMP180;3735;50.136;11.062;2023-03-01T09:21:48;98891.00;;;10.30
7389;BMP180;3735;50.136;11.062;2023-03-01T09:24:24;98891.00;;;10.60
7389;BMP180;3735;50.136;11.062;2023-03-01T09:26:53;98895.00;;;11.00
7389;BMP180;3735;50.136;11.062;2023-03-01T09:29:19;98886.00;;;10.80
7389;BMP180;3735;50.136;11.062;2023-03-01T09:31:45;98883.00;;;10.80
7389;BMP180;3735;50.136;11.062;2023-03-01T09:34:10;98877.00;;;11.50
7389;BMP180;3735;50.136;11.062;2023-03-01T09:36:38;98882.00;;;11.40
7389;BMP180;3735;50.136;11.062;2023-03-01T09:39:04;98878.00;;;11.30
7389;BMP180;3735;50.136;11.062;2023-03-01T09:47:25;98877.00;;;11.00
7389;BMP180;3735;50.136;11.062;2023-03-01T09:50:12;98881.00;;;11.10
7389;BMP180;3735;50.136;11.062;2023-03-01T09:55:33;98865.00;;;10.60
7389;BMP180;3735;50.136;11.062;2023-03-01T10:01:02;98876.00;;;10.90
7389;BMP180;3735;50.136;11.062;2023-03-01T10:06:23;98865.00;;;11.30
7389;BMP180;3735;50.136;11.062;2023-03-01T10:08:56;98875.00;;;11.00
7389;BMP180;3735;50.136;11.062;2023-03-01T10:11:46;98866.00;;;11.40
7389;BMP180;3735;50.136;11.062;2023-03-01T10:23:14;98851.00;;;11.60
7389;BMP180;3735;50.136;11.062;2023-03-01T10:29:11;98847.00;;;11.10
7389;BMP180;3735;50.136;11.062;2023-03-01T10:31:52;98857.00;;;11.60
7389;BMP180;3735;50.136;11.062;2023-03-01T10:36:57;98858.00;;;11.90
7389;BMP180;3735;50.136;11.062;2023-03-01T10:39:25;98846.00;;;11.80
7389;BMP180;3735;50.136;11.062;2023-03-01T10:42:19;98837.00;;;11.70
7389;BMP180;3735;50.136;11.062;2023-03-01T10:44:49;98848.00;;;12.00
7389;BMP180;3735;50.136;11.062;2023-03-01T10:47:16;98830.00;;;12.40
7389;BMP180;3735;50.136;11.062;2023-03-01T10:50:03;98834.00;;;12.60
7389;BMP180;3735;50.136;11.062;2023-03-01T10:52:36;98818.00;;;12.70
7389;BMP180;3735;50.136;11.062;2023-03-01T10:55:25;98826.00;;;13.00
7389;BMP180;3735;50.136;11.062;2023-03-01T10:58:07;98819.00;;;12.60
7389;BMP180;3735;50.136;11.062;2023-03-01T11:00:48;98819.00;;;13.00
7389;BMP180;3735;50.136;11.062;2023-03-01T11:03:20;98829.00;;;13.40
7389;BMP180;3735;50.136;11.062;2023-03-01T11:08:48;98816.00;;;12.80
7389;BMP180;3735;50.136;11.062;2023-03-01T11:16:33;98806.00;;;12.40
7389;BMP180;3735;50.136;11.062;2023-03-01T11:19:20;98802.00;;;12.50
7389;BMP180;3735;50.136;11.062;2023-03-01T11:22:11;98808.00;;;12.50
7389;BMP180;3735;50.136;11.062;2023-03-01T11:24:42;98792.00;;;12.40
7389;BMP180;3735;50.136;11.062;2023-03-01T11:27:22;98780.00;;;13.00
7389;BMP180;3735;50.136;11.062;2023-03-01T11:30:18;98784.00;;;13.10
7389;BMP180;3735;50.136;11.062;2023-03-01T11:35:46;98757.00;;;12.60
7389;BMP180;3735;50.136;11.062;2023-03-01T11:38:25;98764.00;;;13.20
7389;BMP180;3735;50.136;11.062;2023-03-01T11:52:28;98762.00;;;13.30
7389;BMP180;3735;50.136;11.062;2023-03-01T11:55:24;98758.00;;;13.20
7389;BMP180;3735;50.136;11.062;2023-03-01T12:01:18;98743.00;;;13.60
7389;BMP180;3735;50.136;11.062;2023-03-01T12:12:53;98734.00;;;13.50
7389;BMP180;3735;50.136;11.062;2023-03-01T12:15:37;98736.00;;;13.70
7389;BMP180;3735;50.136;11.062;2023-03-01T12:18:29;98726.00;;;13.10
7389;BMP180;3735;50.136;11.062;2023-03-01T12:29:34;98718.00;;;13.70
7389;BMP180;3735;50.136;11.062;2023-03-01T12:38:32;98711.00;;;14.10
7389;BMP180;3735;50.136;11.062;2023-03-01T12:49:32;98689.00;;;14.70
7389;BMP180;3735;50.136;11.062;2023-03-01T12:52:19;98697.00;;;14.80
7389;BMP180;3735;50.136;11.062;2023-03-01T12:54:51;98681.00;;;13.90
7389;BMP180;3735;50.136;11.062;2023-03-01T12:57:33;98683.00;;;14.30
7389;BMP180;3735;50.136;11.062;2023-03-01T13:00:40;98681.00;;;14.70
7389;BMP180;3735;50.136;11.062;2023-03-01T13:06:15;98677.00;;;15.10
7389;BMP180;3735;50.136;11.062;2023-03-01T13:09:13;98681.00;;;14.80
7389;BMP180;3735;50.136;11.062;2023-03-01T13:11:42;98668.00;;;14.70
7389;BMP180;3735;50.136;11.062;2023-03-01T13:16:47;98656.00;;;14.50
7389;BMP180;3735;50.136;11.062;2023-03-01T13:19:23;98663.00;;;14.40
7389;BMP180;3735;50.136;11.062;2023-03-01T13:21:53;98670.00;;;13.90
7389;BMP180;3735;50.136;11.062;2023-03-01T13:24:33;98661.00;;;13.90
7389;BMP180;3735;50.136;11.062;2023-03-01T13:29:54;98656.00;;;13.60
7389;BMP180;3735;50.136;11.062;2023-03-01T13:32:29;98654.00;;;12.70
7389;BMP180;3735;50.136;11.062;2023-03-01T13:37:44;98652.00;;;13.60
7389;BMP180;3735;50.136;11.062;2023-03-01T13:42:56;98653.00;;;12.80
7389;BMP180;3735;50.136;11.062;2023-03-01T13:48:09;98653.00;;;13.50
7389;BMP180;3735;50.136;11.062;2023-03-01T13:50:46;98644.00;;;13.70
7389;BMP180;3735;50.136;11.062;2023-03-01T13:53:20;98642.00;;;13.20
7389;BMP180;3735;50.136;11.062;2023-03-01T13:55:52;98650.00;;;13.30
7389;BMP180;3735;50.136;11.062;2023-03-01T13:58:30;98657.00;;;13.60
7389;BMP180;3735;50.136;11.062;2023-03-01T14:01:06;98652.00;;;13.40
7389;BMP180;3735;50.136;11.062;2023-03-01T14:03:41;98645.00;;;13.40
7389;BMP180;3735;50.136;11.062;2023-03-01T14:06:24;98652.00;;;13.00
7389;BMP180;3735;50.136;11.062;2023-03-01T14:12:00;98654.00;;;13.20
7389;BMP180;3735;50.136;11.062;2023-03-01T14:14:46;98656.00;;;13.10
7389;BMP180;3735;50.136;11.062;2023-03-01T14:20:31;98655.00;;;12.40
7389;BMP180;3735;50.136;11.062;2023-03-01T14:23:01;98660.00;;;12.00
7389;BMP180;3735;50.136;11.062;2023-03-01T14:25:32;98665.00;;;11.50
7389;BMP180;3735;50.136;11.062;2023-03-01T14:30:43;98656.00;;;12.00
7389;BMP180;3735;50.136;11.062;2023-03-01T14:33:22;98647.00;;;12.30
7389;BMP180;3735;50.136;11.062;2023-03-01T14:36:10;98639.00;;;12.30
7389;BMP180;3735;50.136;11.062;2023-03-01T14:38:42;98646.00;;;11.90
7389;BMP180;3735;50.136;11.062;2023-03-01T14:41:12;98653.00;;;12.10
7389;BMP180;3735;50.136;11.062;2023-03-01T14:44:01;98656.00;;;11.30
7389;BMP180;3735;50.136;11.062;2023-03-01T14:46:38;98655.00;;;10.90
7389;BMP180;3735;50.136;11.062;2023-03-01T14:49:23;98654.00;;;10.70
7389;BMP180;3735;50.136;11.062;2023-03-01T14:52:07;98650.00;;;11.30
7389;BMP180;3735;50.136;11.062;2023-03-01T14:54:47;98645.00;;;11.00
7389;BMP180;3735;50.136;11.062;2023-03-01T14:59:49;98648.00;;;10.90
7389;BMP180;3735;50.136;11.062;2023-03-01T15:02:22;98627.00;;;10.50
7389;BMP180;3735;50.136;11.062;2023-03-01T15:04:54;98633.00;;;10.50
7389;BMP180;3735;50.136;11.062;2023-03-01T15:07:28;98655.00;;;9.50
7389;BMP180;3735;50.136;11.062;2023-03-01T15:09:55;98651.00;;;10.10
7389;BMP180;3735;50.136;11.062;2023-03-01T15:14:53;98656.00;;;10.50
7389;BMP180;3735;50.136;11.062;2023-03-01T15:17:38;98655.00;;;10.20
7389;BMP180;3735;50.136;11.062;2023-03-01T15:20:16;98648.00;;;9.80
7389;BMP180;3735;50.136;11.062;2023-03-01T15:22:45;98647.00;;;9.80
7389;BMP180;3735;50.136;11.062;2023-03-01T15:25:20;98657.00;;;10.00
7389;BMP180;3735;50.136;11.062;2023-03-01T15:27:48;98658.00;;;10.00
7389;BMP180;3735;50.136;11.062;2023-03-01T15:30:27;98659.00;;;10.10
7389;BMP180;3735;50.136;11.062;2023-03-01T15:35:51;98673.00;;;9.70
7389;BMP180;3735;50.136;11.062;2023-03-01T15:38:34;98666.00;;;9.50
7389;BMP180;3735;50.136;11.062;2023-03-01T15:41:04;98681.00;;;9.00
7389;BMP180;3735;50.136;11.062;2023-03-01T15:43:59;98692.00;;;8.00
7389;BMP180;3735;50.136;11.062;2023-03-01T15:46:34;98693.00;;;7.30
7389;BMP180;3735;50.136;11.062;2023-03-01T15:51:58;98681.00;;;6.50
7389;BMP180;3735;50.136;11.062;2023-03-01T15:54:27;98682.00;;;6.30
7389;BMP180;3735;50.136;11.062;2023-03-01T15:56:53;98678.00;;;6.10
7389;BMP180;3735;50.136;11.062;2023-03-01T15:59:19;98687.00;;;6.00
7389;BMP180;3735;50.136;11.062;2023-03-01T16:01:46;98690.00;;;5.80
7389;BMP180;3735;50.136;11.062;2023-03-01T16:04:16;98691.00;;;5.70
7389;BMP180;3735;50.136;11.062;2023-03-01T16:06:52;98705.00;;;5.50
7389;BMP180;3735;50.136;11.062;2023-03-01T16:09:26;98694.00;;;5.40
7389;BMP180;3735;50.136;11.062;2023-03-01T16:11:53;98699.00;;;5.40
7389;BMP180;3735;50.136;11.062;2023-03-01T16:14:19;98698.00;;;5.20
7389;BMP180;3735;50.136;11.062;2023-03-01T16:16:46;98700.00;;;5.00
7389;BMP180;3735;50.136;11.062;2023-03-01T16:19:14;98702.00;;;5.00
7389;BMP180;3735;50.136;11.062;2023-03-01T16:21:41;98713.00;;;5.10
7389;BMP180;3735;50.136;11.062;2023-03-01T16:24:08;98715.00;;;5.00
7389;BMP180;3735;50.136;11.062;2023-03-01T16:26:36;98714.00;;;4.90
7389;BMP180;3735;50.136;11.062;2023-03-01T16:29:03;98714.00;;;4.80
7389;BMP180;3735;50.136;11.062;2023-03-01T16:31:28;98711.00;;;4.70
7389;BMP180;3735;50.136;11.062;2023-03-01T16:33:57;98716.00;;;4.60
7389;BMP180;3735;50.136;11.062;2023-03-01T16:36:24;98716.00;;;4.60
7389;BMP180;3735;50.136;11.062;2023-03-01T16:38:51;98718.00;;;4.50
7389;BMP180;3735;50.136;11.062;2023-03-01T16:41:20;98720.00;;;4.50
7389;BMP180;3735;50.136;11.062;2023-03-01T16:43:47;98720.00;;;4.40
7389;BMP180;3735;50.136;11.062;2023-03-01T16:46:25;98710.00;;;4.30
7389;BMP180;3735;50.136;11.062;2023-03-01T16:48:51;98712.00;;;4.20
7389;BMP180;3735;50.136;11.062;2023-03-01T16:51:19;98723.00;;;4.10
7389;BMP180;3735;50.136;11.062;2023-03-01T16:53:45;98729.00;;;4.10
7389;BMP180;3735;50.136;11.062;2023-03-01T16:56:12;98726.00;;;3.90
7389;BMP180;3735;50.136;11.062;2023-03-01T16:58:39;98732.00;;;3.90
7389;BMP180;3735;50.136;11.062;2023-03-01T17:01:18;98731.00;;;3.90
7389;BMP180;3735;50.136;11.062;2023-03-01T17:03:47;98736.00;;;3.80